sensor_id;sensor_type;location;lat;lon;timestamp;P1;durP1;ratioP1;P2;durP2;ratioP2
25615;SDS011;13482;48.234;13.006;2022-10-24T00:01:18;2.85;;;1.35;;
25615;SDS011;13482;48.234;13.006;2022-10-24T00:03:47;3.47;;;1.70;;
25615;SDS011;13482;48.234;13.006;2022-10-24T00:06:16;2.05;;;1.52;;
25615;SDS011;13482;48.234;13.006;2022-10-24T00:08:45;1.75;;;1.20;;
25615;SDS011;13482;48.234;13.006;2022-10-24T00:11:24;2.90;;;1.50;;
25615;SDS011;13482;48.234;13.006;2022-10-24T00:13:54;2.30;;;1.50;;
25615;SDS011;13482;48.234;13.006;2022-10-24T00:16:23;2.95;;;1.45;;
25615;SDS011;13482;48.234;13.006;2022-10-24T00:18:52;2.65;;;1.58;;
25615;SDS011;13482;48.234;13.006;2022-10-24T00:21:19;2.75;;;1.90;;
25615;SDS011;13482;48.234;13.006;2022-10-24T00:23:46;1.83;;;1.40;;
25615;SDS011;13482;48.234;13.006;2022-10-24T00:26:14;2.47;;;1.77;;
25615;SDS011;13482;48.234;13.006;2022-10-24T00:28:42;3.05;;;1.70;;
25615;SDS011;13482;48.234;13.006;2022-10-24T00:31:14;4.03;;;1.65;;
25615;SDS011;13482;48.234;13.006;2022-10-24T00:33:43;2.53;;;1.40;;
25615;SDS011;13482;48.234;13.006;2022-10-24T00:36:11;2.83;;;1.80;;
25615;SDS011;13482;48.234;13.006;2022-10-24T00:38:42;3.35;;;1.63;;
25615;SDS011;13482;48.234;13.006;2022-10-24T00:41:14;2.53;;;1.60;;
25615;SDS011;13482;48.234;13.006;2022-10-24T00:43:44;2.88;;;1.70;;
25615;SDS011;13482;48.234;13.006;2022-10-24T00:46:11;3.17;;;1.65;;
25615;SDS011;13482;48.234;13.006;2022-10-24T00:48:46;2.88;;;1.70;;
25615;SDS011;13482;48.234;13.006;2022-10-24T00:51:18;3.13;;;1.83;;
25615;SDS011;13482;48.234;13.006;2022-10-24T00:53:55;4.63;;;1.30;;
25615;SDS011;13482;48.234;13.006;2022-10-24T00:56:27;3.15;;;1.35;;
25615;SDS011;13482;48.234;13.006;2022-10-24T00:59:01;4.47;;;1.60;;
25615;SDS011;13482;48.234;13.006;2022-10-24T01:01:31;2.33;;;1.50;;
25615;SDS011;13482;48.234;13.006;2022-10-24T01:03:59;2.25;;;1.50;;
25615;SDS011;13482;48.234;13.006;2022-10-24T01:06:36;2.28;;;1.52;;
25615;SDS011;13482;48.234;13.006;2022-10-24T01:13:24;3.10;;;1.30;;
25615;SDS011;13482;48.234;13.006;2022-10-24T01:18:51;2.55;;;1.58;;
25615;SDS011;13482;48.234;13.006;2022-10-24T01:30:05;2.60;;;1.33;;
25615;SDS011;13482;48.234;13.006;2022-10-24T01:32:56;2.50;;;1.65;;
25615;SDS011;13482;48.234;13.006;2022-10-24T01:36:05;3.05;;;1.63;;
25615;SDS011;13482;48.234;13.006;2022-10-24T01:41:12;2.33;;;1.60;;
25615;SDS011;13482;48.234;13.006;2022-10-24T01:43:47;3.15;;;1.98;;
25615;SDS011;13482;48.234;13.006;2022-10-24T01:46:24;3.63;;;1.80;;
25615;SDS011;13482;48.234;13.006;2022-10-24T01:51:56;2.38;;;1.58;;
25615;SDS011;13482;48.234;13.006;2022-10-24T01:54:27;3.05;;;1.67;;
25615;SDS011;13482;48.234;13.006;2022-10-24T01:56:57;2.63;;;1.58;;
25615;SDS011;13482;48.234;13.006;2022-10-24T02:01:55;3.53;;;1.75;;
25615;SDS011;13482;48.234;13.006;2022-10-24T02:04:28;3.13;;;1.63;;
25615;SDS011;13482;48.234;13.006;2022-10-24T02:06:58;2.08;;;1.40;;
25615;SDS011;13482;48.234;13.006;2022-10-24T02:09:29;1.92;;;1.30;;
25615;SDS011;13482;48.234;13.006;2022-10-24T02:12:00;3.22;;;1.80;;
25615;SDS011;13482;48.234;13.006;2022-10-24T02:14:32;2.58;;;1.60;;
25615;SDS011;13482;48.234;13.006;2022-10-24T02:17:02;2.50;;;1.67;;
25615;SDS011;13482;48.234;13.006;2022-10-24T02:19:29;2.28;;;1.40;;
25615;SDS011;13482;48.234;13.006;2022-10-24T02:25:05;2.08;;;1.60;;
25615;SDS011;13482;48.234;13.006;2022-10-24T02:27:52;2.85;;;1.48;;
25615;SDS011;13482;48.234;13.006;2022-10-24T02:30:34;2.28;;;1.65;;
25615;SDS011;13482;48.234;13.006;2022-10-24T02:33:08;4.03;;;1.77;;
25615;SDS011;13482;48.234;13.006;2022-10-24T02:35:36;4.57;;;1.60;;
25615;SDS011;13482;48.234;13.006;2022-10-24T02:38:08;3.17;;;1.80;;
25615;SDS011;13482;48.234;13.006;2022-10-24T02:40:54;2.92;;;1.77;;
25615;SDS011;13482;48.234;13.006;2022-10-24T02:43:24;3.97;;;1.92;;
25615;SDS011;13482;48.234;13.006;2022-10-24T02:45:54;4.25;;;2.15;;
25615;SDS011;13482;48.234;13.006;2022-10-24T02:48:25;2.17;;;1.40;;
25615;SDS011;13482;48.234;13.006;2022-10-24T02:50:56;2.55;;;1.80;;
25615;SDS011;13482;48.234;13.006;2022-10-24T02:53:24;2.95;;;2.03;;
25615;SDS011;13482;48.234;13.006;2022-10-24T02:55:53;3.85;;;1.92;;
25615;SDS011;13482;48.234;13.006;2022-10-24T02:58:21;4.30;;;2.60;;
25615;SDS011;13482;48.234;13.006;2022-10-24T03:00:48;4.28;;;2.10;;
25615;SDS011;13482;48.234;13.006;2022-10-24T03:03:15;3.78;;;2.25;;
25615;SDS011;13482;48.234;13.006;2022-10-24T03:05:43;4.03;;;2.30;;
25615;SDS011;13482;48.234;13.006;2022-10-24T03:08:10;3.08;;;2.08;;
25615;SDS011;13482;48.234;13.006;2022-10-24T03:10:38;3.17;;;1.85;;
25615;SDS011;13482;48.234;13.006;2022-10-24T03:13:06;2.83;;;1.58;;
25615;SDS011;13482;48.234;13.006;2022-10-24T03:15:33;2.72;;;1.90;;
25615;SDS011;13482;48.234;13.006;2022-10-24T03:18:00;2.70;;;1.50;;
25615;SDS011;13482;48.234;13.006;2022-10-24T03:20:28;2.55;;;1.80;;
25615;SDS011;13482;48.234;13.006;2022-10-24T03:22:55;2.70;;;1.83;;
25615;SDS011;13482;48.234;13.006;2022-10-24T03:25:22;4.57;;;2.30;;
25615;SDS011;13482;48.234;13.006;2022-10-24T03:27:50;2.92;;;1.90;;
25615;SDS011;13482;48.234;13.006;2022-10-24T03:30:17;3.08;;;1.52;;
25615;SDS011;13482;48.234;13.006;2022-10-24T03:32:44;2.60;;;1.88;;
25615;SDS011;13482;48.234;13.006;2022-10-24T03:35:11;2.60;;;1.65;;
25615;SDS011;13482;48.234;13.006;2022-10-24T03:37:39;2.50;;;1.70;;
25615;SDS011;13482;48.234;13.006;2022-10-24T03:40:07;3.78;;;1.70;;
25615;SDS011;13482;48.234;13.006;2022-10-24T03:42:36;2.83;;;1.90;;
25615;SDS011;13482;48.234;13.006;2022-10-24T03:45:03;2.72;;;1.73;;
25615;SDS011;13482;48.234;13.006;2022-10-24T03:47:31;3.58;;;1.80;;
25615;SDS011;13482;48.234;13.006;2022-10-24T03:49:58;2.55;;;1.65;;
25615;SDS011;13482;48.234;13.006;2022-10-24T03:52:25;1.95;;;1.35;;
25615;SDS011;13482;48.234;13.006;2022-10-24T03:54:52;2.70;;;1.80;;
25615;SDS011;13482;48.234;13.006;2022-10-24T03:57:20;2.85;;;1.90;;
25615;SDS011;13482;48.234;13.006;2022-10-24T03:59:52;2.65;;;1.77;;
25615;SDS011;13482;48.234;13.006;2022-10-24T04:02:19;3.55;;;1.90;;
25615;SDS011;13482;48.234;13.006;2022-10-24T04:04:46;2.95;;;1.45;;
25615;SDS011;13482;48.234;13.006;2022-10-24T04:07:14;2.50;;;1.67;;
25615;SDS011;13482;48.234;13.006;2022-10-24T04:09:41;3.13;;;1.85;;
25615;SDS011;13482;48.234;13.006;2022-10-24T04:12:08;2.50;;;1.88;;
25615;SDS011;13482;48.234;13.006;2022-10-24T04:14:35;3.08;;;2.17;;
25615;SDS011;13482;48.234;13.006;2022-10-24T04:17:02;3.55;;;1.98;;
25615;SDS011;13482;48.234;13.006;2022-10-24T04:19:30;3.13;;;1.85;;
25615;SDS011;13482;48.234;13.006;2022-10-24T04:21:57;2.75;;;1.60;;
25615;SDS011;13482;48.234;13.006;2022-10-24T04:24:25;2.95;;;1.60;;
25615;SDS011;13482;48.234;13.006;2022-10-24T04:26:52;2.15;;;1.50;;
25615;SDS011;13482;48.234;13.006;2022-10-24T04:29:19;3.17;;;1.80;;
25615;SDS011;13482;48.234;13.006;2022-10-24T04:31:47;2.83;;;1.73;;
25615;SDS011;13482;48.234;13.006;2022-10-24T04:34:14;2.78;;;2.00;;
25615;SDS011;13482;48.234;13.006;2022-10-24T04:36:41;2.35;;;1.75;;
25615;SDS011;13482;48.234;13.006;2022-10-24T04:39:08;3.22;;;1.90;;
25615;SDS011;13482;48.234;13.006;2022-10-24T04:41:35;2.75;;;1.73;;
25615;SDS011;13482;48.234;13.006;2022-10-24T04:44:03;2.60;;;1.50;;
25615;SDS011;13482;48.234;13.006;2022-10-24T04:46:30;2.78;;;1.67;;
25615;SDS011;13482;48.234;13.006;2022-10-24T04:48:57;3.20;;;1.88;;
25615;SDS011;13482;48.234;13.006;2022-10-24T04:51:24;3.80;;;2.30;;
25615;SDS011;13482;48.234;13.006;2022-10-24T04:53:52;2.65;;;1.77;;
25615;SDS011;13482;48.234;13.006;2022-10-24T04:56:19;3.78;;;2.10;;
25615;SDS011;13482;48.234;13.006;2022-10-24T04:58:46;2.83;;;2.00;;
25615;SDS011;13482;48.234;13.006;2022-10-24T05:01:13;2.95;;;1.52;;
25615;SDS011;13482;48.234;13.006;2022-10-24T05:03:41;3.17;;;1.38;;
25615;SDS011;13482;48.234;13.006;2022-10-24T05:06:08;3.13;;;1.40;;
25615;SDS011;13482;48.234;13.006;2022-10-24T05:08:35;5.45;;;1.77;;
25615;SDS011;13482;48.234;13.006;2022-10-24T05:11:02;4.15;;;2.03;;
25615;SDS011;13482;48.234;13.006;2022-10-24T05:13:30;4.00;;;2.15;;
25615;SDS011;13482;48.234;13.006;2022-10-24T05:18:29;3.35;;;1.58;;
25615;SDS011;13482;48.234;13.006;2022-10-24T05:20:57;2.95;;;1.70;;
25615;SDS011;13482;48.234;13.006;2022-10-24T05:23:25;3.25;;;1.92;;
25615;SDS011;13482;48.234;13.006;2022-10-24T05:25:53;4.63;;;1.98;;
25615;SDS011;13482;48.234;13.006;2022-10-24T05:28:20;2.90;;;1.63;;
25615;SDS011;13482;48.234;13.006;2022-10-24T05:30:48;2.53;;;1.50;;
25615;SDS011;13482;48.234;13.006;2022-10-24T05:33:15;3.75;;;1.70;;
25615;SDS011;13482;48.234;13.006;2022-10-24T05:35:42;3.17;;;1.52;;
25615;SDS011;13482;48.234;13.006;2022-10-24T05:38:09;3.25;;;1.50;;
25615;SDS011;13482;48.234;13.006;2022-10-24T05:40:36;6.82;;;1.70;;
25615;SDS011;13482;48.234;13.006;2022-10-24T05:43:04;2.35;;;1.23;;
25615;SDS011;13482;48.234;13.006;2022-10-24T05:45:31;4.35;;;1.90;;
25615;SDS011;13482;48.234;13.006;2022-10-24T05:47:59;8.43;;;2.00;;
25615;SDS011;13482;48.234;13.006;2022-10-24T05:50:27;2.63;;;1.63;;
25615;SDS011;13482;48.234;13.006;2022-10-24T05:52:55;2.42;;;1.50;;
25615;SDS011;13482;48.234;13.006;2022-10-24T05:55:22;3.30;;;1.92;;
25615;SDS011;13482;48.234;13.006;2022-10-24T05:57:49;2.78;;;1.70;;
25615;SDS011;13482;48.234;13.006;2022-10-24T06:00:17;2.33;;;1.50;;
25615;SDS011;13482;48.234;13.006;2022-10-24T06:02:45;2.22;;;1.58;;
25615;SDS011;13482;48.234;13.006;2022-10-24T06:05:17;1.90;;;1.35;;
25615;SDS011;13482;48.234;13.006;2022-10-24T06:07:46;2.13;;;1.63;;
25615;SDS011;13482;48.234;13.006;2022-10-24T06:10:14;2.22;;;1.40;;
25615;SDS011;13482;48.234;13.006;2022-10-24T06:12:41;3.33;;;1.40;;
25615;SDS011;13482;48.234;13.006;2022-10-24T06:15:10;3.08;;;1.63;;
25615;SDS011;13482;48.234;13.006;2022-10-24T06:17:38;2.85;;;1.80;;
25615;SDS011;13482;48.234;13.006;2022-10-24T06:20:06;3.88;;;1.70;;
25615;SDS011;13482;48.234;13.006;2022-10-24T06:22:34;3.58;;;1.73;;
25615;SDS011;13482;48.234;13.006;2022-10-24T06:25:01;2.65;;;1.63;;
25615;SDS011;13482;48.234;13.006;2022-10-24T06:27:28;2.75;;;1.70;;
25615;SDS011;13482;48.234;13.006;2022-10-24T06:29:56;3.40;;;1.73;;
25615;SDS011;13482;48.234;13.006;2022-10-24T06:32:23;4.18;;;1.75;;
25615;SDS011;13482;48.234;13.006;2022-10-24T06:34:50;3.30;;;1.75;;
25615;SDS011;13482;48.234;13.006;2022-10-24T06:37:17;4.05;;;1.92;;
25615;SDS011;13482;48.234;13.006;2022-10-24T06:39:44;2.03;;;1.63;;
25615;SDS011;13482;48.234;13.006;2022-10-24T06:42:11;2.88;;;1.60;;
25615;SDS011;13482;48.234;13.006;2022-10-24T06:44:39;3.22;;;1.60;;
25615;SDS011;13482;48.234;13.006;2022-10-24T06:47:06;2.40;;;1.55;;
25615;SDS011;13482;48.234;13.006;2022-10-24T06:49:33;3.60;;;1.80;;
25615;SDS011;13482;48.234;13.006;2022-10-24T06:52:01;3.33;;;1.80;;
25615;SDS011;13482;48.234;13.006;2022-10-24T06:54:28;4.30;;;2.05;;
25615;SDS011;13482;48.234;13.006;2022-10-24T06:56:56;4.47;;;2.13;;
25615;SDS011;13482;48.234;13.006;2022-10-24T06:59:23;3.95;;;1.90;;
25615;SDS011;13482;48.234;13.006;2022-10-24T07:01:51;3.47;;;1.80;;
25615;SDS011;13482;48.234;13.006;2022-10-24T07:04:18;3.97;;;2.10;;
25615;SDS011;13482;48.234;13.006;2022-10-24T07:06:45;4.47;;;2.95;;
25615;SDS011;13482;48.234;13.006;2022-10-24T07:09:13;3.08;;;2.20;;
25615;SDS011;13482;48.234;13.006;2022-10-24T07:11:41;5.35;;;2.28;;
25615;SDS011;13482;48.234;13.006;2022-10-24T07:14:11;4.07;;;2.10;;
25615;SDS011;13482;48.234;13.006;2022-10-24T07:16:38;2.90;;;1.67;;
25615;SDS011;13482;48.234;13.006;2022-10-24T07:19:05;2.92;;;1.95;;
25615;SDS011;13482;48.234;13.006;2022-10-24T07:21:34;2.88;;;1.65;;
25615;SDS011;13482;48.234;13.006;2022-10-24T07:24:01;3.97;;;1.80;;
25615;SDS011;13482;48.234;13.006;2022-10-24T07:26:29;3.95;;;1.70;;
25615;SDS011;13482;48.234;13.006;2022-10-24T07:28:58;3.70;;;2.10;;
25615;SDS011;13482;48.234;13.006;2022-10-24T07:31:28;3.17;;;1.80;;
25615;SDS011;13482;48.234;13.006;2022-10-24T07:33:59;3.05;;;1.73;;
25615;SDS011;13482;48.234;13.006;2022-10-24T07:36:28;3.63;;;2.10;;
25615;SDS011;13482;48.234;13.006;2022-10-24T07:38:56;4.05;;;2.00;;
25615;SDS011;13482;48.234;13.006;2022-10-24T07:41:25;4.18;;;1.95;;
25615;SDS011;13482;48.234;13.006;2022-10-24T07:43:57;2.85;;;1.55;;
25615;SDS011;13482;48.234;13.006;2022-10-24T07:46:27;1.75;;;1.30;;
25615;SDS011;13482;48.234;13.006;2022-10-24T07:48:55;2.88;;;1.67;;
25615;SDS011;13482;48.234;13.006;2022-10-24T07:51:22;3.42;;;1.88;;
25615;SDS011;13482;48.234;13.006;2022-10-24T07:53:53;2.65;;;1.40;;
25615;SDS011;13482;48.234;13.006;2022-10-24T07:56:20;2.65;;;1.30;;
25615;SDS011;13482;48.234;13.006;2022-10-24T07:58:47;3.38;;;1.50;;
25615;SDS011;13482;48.234;13.006;2022-10-24T08:01:16;2.70;;;1.50;;
25615;SDS011;13482;48.234;13.006;2022-10-24T08:03:49;3.03;;;1.50;;
25615;SDS011;13482;48.234;13.006;2022-10-24T08:06:18;3.42;;;1.60;;
25615;SDS011;13482;48.234;13.006;2022-10-24T08:08:49;4.07;;;1.63;;
25615;SDS011;13482;48.234;13.006;2022-10-24T08:11:17;3.08;;;1.40;;
25615;SDS011;13482;48.234;13.006;2022-10-24T08:13:52;2.78;;;1.35;;
25615;SDS011;13482;48.234;13.006;2022-10-24T08:16:23;2.70;;;1.33;;
25615;SDS011;13482;48.234;13.006;2022-10-24T08:18:52;2.78;;;1.38;;
25615;SDS011;13482;48.234;13.006;2022-10-24T08:21:23;2.38;;;1.50;;
25615;SDS011;13482;48.234;13.006;2022-10-24T08:23:52;2.42;;;1.55;;
25615;SDS011;13482;48.234;13.006;2022-10-24T08:26:20;3.13;;;1.80;;
25615;SDS011;13482;48.234;13.006;2022-10-24T08:28:50;3.67;;;2.40;;
25615;SDS011;13482;48.234;13.006;2022-10-24T08:31:19;5.15;;;2.85;;
25615;SDS011;13482;48.234;13.006;2022-10-24T08:33:50;4.03;;;2.65;;
25615;SDS011;13482;48.234;13.006;2022-10-24T08:38:51;3.15;;;2.05;;
25615;SDS011;13482;48.234;13.006;2022-10-24T08:41:22;3.55;;;1.95;;
25615;SDS011;13482;48.234;13.006;2022-10-24T08:43:58;4.60;;;2.30;;
25615;SDS011;13482;48.234;13.006;2022-10-24T08:52:02;2.85;;;1.95;;
25615;SDS011;13482;48.234;13.006;2022-10-24T08:54:53;3.03;;;1.85;;
25615;SDS011;13482;48.234;13.006;2022-10-24T08:57:30;2.92;;;1.73;;
25615;SDS011;13482;48.234;13.006;2022-10-24T09:00:02;3.47;;;2.00;;
25615;SDS011;13482;48.234;13.006;2022-10-24T09:02:38;4.85;;;1.88;;
25615;SDS011;13482;48.234;13.006;2022-10-24T09:05:16;2.47;;;1.73;;
25615;SDS011;13482;48.234;13.006;2022-10-24T09:07:53;3.30;;;1.73;;
25615;SDS011;13482;48.234;13.006;2022-10-24T09:10:32;4.15;;;2.15;;
25615;SDS011;13482;48.234;13.006;2022-10-24T09:13:25;3.72;;;2.00;;
25615;SDS011;13482;48.234;13.006;2022-10-24T09:15:54;3.90;;;1.60;;
25615;SDS011;13482;48.234;13.006;2022-10-24T09:18:32;4.28;;;1.88;;
25615;SDS011;13482;48.234;13.006;2022-10-24T09:21:04;4.88;;;1.63;;
25615;SDS011;13482;48.234;13.006;2022-10-24T09:23:35;3.10;;;1.50;;
25615;SDS011;13482;48.234;13.006;2022-10-24T09:26:04;3.35;;;1.70;;
25615;SDS011;13482;48.234;13.006;2022-10-24T09:28:35;4.65;;;2.00;;
25615;SDS011;13482;48.234;13.006;2022-10-24T09:31:11;3.33;;;1.77;;
25615;SDS011;13482;48.234;13.006;2022-10-24T09:33:47;3.97;;;2.20;;
25615;SDS011;13482;48.234;13.006;2022-10-24T09:36:15;5.28;;;2.30;;
25615;SDS011;13482;48.234;13.006;2022-10-24T09:38:46;4.65;;;2.35;;
25615;SDS011;13482;48.234;13.006;2022-10-24T09:43:51;3.20;;;1.70;;
25615;SDS011;13482;48.234;13.006;2022-10-24T09:46:28;6.35;;;2.20;;
25615;SDS011;13482;48.234;13.006;2022-10-24T09:51:46;2.85;;;1.73;;
25615;SDS011;13482;48.234;13.006;2022-10-24T09:56:57;3.80;;;2.03;;
25615;SDS011;13482;48.234;13.006;2022-10-24T09:59:59;4.93;;;2.05;;
25615;SDS011;13482;48.234;13.006;2022-10-24T10:02:27;4.20;;;1.90;;
25615;SDS011;13482;48.234;13.006;2022-10-24T10:07:30;3.08;;;1.90;;
25615;SDS011;13482;48.234;13.006;2022-10-24T10:10:03;3.33;;;2.22;;
25615;SDS011;13482;48.234;13.006;2022-10-24T10:12:57;3.70;;;1.95;;
25615;SDS011;13482;48.234;13.006;2022-10-24T10:15:48;4.78;;;2.08;;
25615;SDS011;13482;48.234;13.006;2022-10-24T10:21:07;3.95;;;2.08;;
25615;SDS011;13482;48.234;13.006;2022-10-24T10:23:48;4.63;;;2.03;;
25615;SDS011;13482;48.234;13.006;2022-10-24T10:26:25;4.53;;;3.20;;
25615;SDS011;13482;48.234;13.006;2022-10-24T10:29:02;9.20;;;5.18;;
25615;SDS011;13482;48.234;13.006;2022-10-24T10:31:39;4.60;;;3.15;;
25615;SDS011;13482;48.234;13.006;2022-10-24T10:45:49;3.50;;;2.47;;
25615;SDS011;13482;48.234;13.006;2022-10-24T10:51:50;5.85;;;2.40;;
25615;SDS011;13482;48.234;13.006;2022-10-24T10:55:19;3.22;;;1.90;;
25615;SDS011;13482;48.234;13.006;2022-10-24T10:57:57;4.05;;;2.33;;
25615;SDS011;13482;48.234;13.006;2022-10-24T11:00:50;3.83;;;2.08;;
25615;SDS011;13482;48.234;13.006;2022-10-24T11:06:49;3.25;;;1.75;;
25615;SDS011;13482;48.234;13.006;2022-10-24T11:09:43;3.70;;;1.90;;
25615;SDS011;13482;48.234;13.006;2022-10-24T11:12:33;2.63;;;1.63;;
25615;SDS011;13482;48.234;13.006;2022-10-24T11:15:07;5.45;;;2.10;;
25615;SDS011;13482;48.234;13.006;2022-10-24T11:20:36;3.00;;;1.88;;
25615;SDS011;13482;48.234;13.006;2022-10-24T11:23:18;3.42;;;1.75;;
25615;SDS011;13482;48.234;13.006;2022-10-24T11:26:09;5.82;;;1.70;;
25615;SDS011;13482;48.234;13.006;2022-10-24T11:37:45;4.05;;;1.80;;
25615;SDS011;13482;48.234;13.006;2022-10-24T11:40:24;3.95;;;1.70;;
25615;SDS011;13482;48.234;13.006;2022-10-24T11:46:00;3.45;;;1.80;;
25615;SDS011;13482;48.234;13.006;2022-10-24T11:48:48;2.90;;;1.70;;
25615;SDS011;13482;48.234;13.006;2022-10-24T11:51:50;4.80;;;2.20;;
25615;SDS011;13482;48.234;13.006;2022-10-24T11:54:32;4.55;;;2.65;;
25615;SDS011;13482;48.234;13.006;2022-10-24T11:57:12;4.35;;;2.47;;
25615;SDS011;13482;48.234;13.006;2022-10-24T11:59:50;4.90;;;3.00;;
25615;SDS011;13482;48.234;13.006;2022-10-24T12:02:29;5.88;;;3.03;;
25615;SDS011;13482;48.234;13.006;2022-10-24T12:11:17;7.70;;;3.42;;
25615;SDS011;13482;48.234;13.006;2022-10-24T12:14:11;5.65;;;3.13;;
25615;SDS011;13482;48.234;13.006;2022-10-24T12:17:10;6.10;;;3.25;;
25615;SDS011;13482;48.234;13.006;2022-10-24T12:19:52;7.30;;;3.88;;
25615;SDS011;13482;48.234;13.006;2022-10-24T12:22:21;7.28;;;3.85;;
25615;SDS011;13482;48.234;13.006;2022-10-24T12:25:05;5.30;;;3.67;;
25615;SDS011;13482;48.234;13.006;2022-10-24T12:28:01;5.15;;;2.95;;
25615;SDS011;13482;48.234;13.006;2022-10-24T12:33:41;5.78;;;3.88;;
25615;SDS011;13482;48.234;13.006;2022-10-24T12:36:10;6.75;;;4.40;;
25615;SDS011;13482;48.234;13.006;2022-10-24T12:39:00;5.97;;;3.78;;
25615;SDS011;13482;48.234;13.006;2022-10-24T12:41:43;4.93;;;3.90;;
25615;SDS011;13482;48.234;13.006;2022-10-24T12:44:24;6.65;;;3.40;;
25615;SDS011;13482;48.234;13.006;2022-10-24T12:49:54;4.47;;;2.78;;
25615;SDS011;13482;48.234;13.006;2022-10-24T12:54:58;4.68;;;2.50;;
25615;SDS011;13482;48.234;13.006;2022-10-24T12:59:57;5.05;;;2.50;;
25615;SDS011;13482;48.234;13.006;2022-10-24T13:02:46;4.75;;;2.10;;
25615;SDS011;13482;48.234;13.006;2022-10-24T13:05:39;4.57;;;2.33;;
25615;SDS011;13482;48.234;13.006;2022-10-24T13:08:34;3.42;;;2.40;;
25615;SDS011;13482;48.234;13.006;2022-10-24T13:20:22;4.40;;;2.28;;
25615;SDS011;13482;48.234;13.006;2022-10-24T13:22:59;3.13;;;1.90;;
25615;SDS011;13482;48.234;13.006;2022-10-24T13:25:53;3.10;;;1.77;;
25615;SDS011;13482;48.234;13.006;2022-10-24T13:36:01;9.00;;;4.30;;
25615;SDS011;13482;48.234;13.006;2022-10-24T13:41:30;4.32;;;2.00;;
25615;SDS011;13482;48.234;13.006;2022-10-24T13:46:56;3.03;;;1.20;;
25615;SDS011;13482;48.234;13.006;2022-10-24T13:52:48;2.33;;;1.02;;
25615;SDS011;13482;48.234;13.006;2022-10-24T13:55:34;2.00;;;0.80;;
25615;SDS011;13482;48.234;13.006;2022-10-24T14:00:34;1.80;;;0.80;;
25615;SDS011;13482;48.234;13.006;2022-10-24T14:03:18;1.67;;;0.80;;
25615;SDS011;13482;48.234;13.006;2022-10-24T14:05:50;1.52;;;0.70;;
25615;SDS011;13482;48.234;13.006;2022-10-24T14:08:29;2.78;;;0.80;;
25615;SDS011;13482;48.234;13.006;2022-10-24T14:11:00;2.85;;;1.20;;
25615;SDS011;13482;48.234;13.006;2022-10-24T14:13:32;3.35;;;1.10;;
25615;SDS011;13482;48.234;13.006;2022-10-24T14:16:04;4.22;;;1.00;;
25615;SDS011;13482;48.234;13.006;2022-10-24T14:18:33;5.63;;;3.00;;
25615;SDS011;13482;48.234;13.006;2022-10-24T14:21:03;4.07;;;2.55;;
25615;SDS011;13482;48.234;13.006;2022-10-24T14:23:32;2.78;;;1.45;;
25615;SDS011;13482;48.234;13.006;2022-10-24T14:26:16;2.92;;;1.63;;
25615;SDS011;13482;48.234;13.006;2022-10-24T14:28:47;2.47;;;1.27;;
25615;SDS011;13482;48.234;13.006;2022-10-24T14:31:32;2.22;;;1.20;;
25615;SDS011;13482;48.234;13.006;2022-10-24T14:34:01;1.83;;;1.15;;
25615;SDS011;13482;48.234;13.006;2022-10-24T14:36:32;3.05;;;1.95;;
25615;SDS011;13482;48.234;13.006;2022-10-24T14:39:03;3.83;;;2.63;;
25615;SDS011;13482;48.234;13.006;2022-10-24T14:41:32;4.22;;;2.70;;
25615;SDS011;13482;48.234;13.006;2022-10-24T14:44:05;4.80;;;1.73;;
25615;SDS011;13482;48.234;13.006;2022-10-24T14:46:39;2.35;;;1.30;;
25615;SDS011;13482;48.234;13.006;2022-10-24T14:49:19;3.05;;;1.08;;
25615;SDS011;13482;48.234;13.006;2022-10-24T14:51:53;2.75;;;1.10;;
25615;SDS011;13482;48.234;13.006;2022-10-24T14:54:34;1.90;;;1.10;;
25615;SDS011;13482;48.234;13.006;2022-10-24T14:57:03;2.60;;;1.20;;
25615;SDS011;13482;48.234;13.006;2022-10-24T14:59:38;3.85;;;1.10;;
25615;SDS011;13482;48.234;13.006;2022-10-24T15:02:20;1.40;;;0.70;;
25615;SDS011;13482;48.234;13.006;2022-10-24T15:04:55;1.98;;;0.80;;
25615;SDS011;13482;48.234;13.006;2022-10-24T15:08:33;3.00;;;0.98;;
25615;SDS011;13482;48.234;13.006;2022-10-24T15:11:12;2.22;;;0.75;;
25615;SDS011;13482;48.234;13.006;2022-10-24T15:13:48;1.42;;;0.60;;
25615;SDS011;13482;48.234;13.006;2022-10-24T15:16:32;2.08;;;0.77;;
25615;SDS011;13482;48.234;13.006;2022-10-24T15:19:04;2.25;;;0.70;;
25615;SDS011;13482;48.234;13.006;2022-10-24T15:21:39;4.38;;;0.88;;
25615;SDS011;13482;48.234;13.006;2022-10-24T15:24:17;2.08;;;0.90;;
25615;SDS011;13482;48.234;13.006;2022-10-24T15:26:50;1.33;;;0.77;;
25615;SDS011;13482;48.234;13.006;2022-10-24T15:29:33;3.83;;;2.58;;
25615;SDS011;13482;48.234;13.006;2022-10-24T15:32:00;2.83;;;1.42;;
25615;SDS011;13482;48.234;13.006;2022-10-24T15:34:27;2.75;;;1.10;;
25615;SDS011;13482;48.234;13.006;2022-10-24T15:36:57;5.13;;;1.00;;
25615;SDS011;13482;48.234;13.006;2022-10-24T15:39:25;2.10;;;0.70;;
25615;SDS011;13482;48.234;13.006;2022-10-24T15:41:52;1.08;;;0.57;;
25615;SDS011;13482;48.234;13.006;2022-10-24T15:44:25;1.55;;;0.68;;
25615;SDS011;13482;48.234;13.006;2022-10-24T15:46:56;2.45;;;0.77;;
25615;SDS011;13482;48.234;13.006;2022-10-24T15:49:23;0.82;;;0.50;;
25615;SDS011;13482;48.234;13.006;2022-10-24T15:51:50;1.85;;;0.77;;
25615;SDS011;13482;48.234;13.006;2022-10-24T15:54:19;3.08;;;1.10;;
25615;SDS011;13482;48.234;13.006;2022-10-24T15:56:48;1.33;;;0.70;;
25615;SDS011;13482;48.234;13.006;2022-10-24T15:59:15;2.47;;;1.00;;
25615;SDS011;13482;48.234;13.006;2022-10-24T16:01:50;1.02;;;0.60;;
25615;SDS011;13482;48.234;13.006;2022-10-24T16:04:23;3.95;;;2.25;;
25615;SDS011;13482;48.234;13.006;2022-10-24T16:06:50;4.00;;;2.33;;
25615;SDS011;13482;48.234;13.006;2022-10-24T16:09:20;3.92;;;2.30;;
25615;SDS011;13482;48.234;13.006;2022-10-24T16:11:52;2.47;;;1.30;;
25615;SDS011;13482;48.234;13.006;2022-10-24T16:14:21;2.58;;;0.98;;
25615;SDS011;13482;48.234;13.006;2022-10-24T16:16:51;2.22;;;1.00;;
25615;SDS011;13482;48.234;13.006;2022-10-24T16:19:20;2.42;;;1.10;;
25615;SDS011;13482;48.234;13.006;2022-10-24T16:21:49;2.55;;;1.00;;
25615;SDS011;13482;48.234;13.006;2022-10-24T16:24:18;2.22;;;0.90;;
25615;SDS011;13482;48.234;13.006;2022-10-24T16:26:45;2.40;;;1.05;;
25615;SDS011;13482;48.234;13.006;2022-10-24T16:29:12;2.33;;;0.90;;
25615;SDS011;13482;48.234;13.006;2022-10-24T16:31:40;3.33;;;1.25;;
25615;SDS011;13482;48.234;13.006;2022-10-24T16:34:08;2.15;;;0.98;;
25615;SDS011;13482;48.234;13.006;2022-10-24T16:36:35;2.42;;;1.20;;
25615;SDS011;13482;48.234;13.006;2022-10-24T16:39:02;2.95;;;1.10;;
25615;SDS011;13482;48.234;13.006;2022-10-24T16:41:29;1.85;;;0.90;;
25615;SDS011;13482;48.234;13.006;2022-10-24T16:43:56;3.53;;;1.52;;
25615;SDS011;13482;48.234;13.006;2022-10-24T16:46:25;3.58;;;2.00;;
25615;SDS011;13482;48.234;13.006;2022-10-24T16:48:53;2.63;;;1.58;;
25615;SDS011;13482;48.234;13.006;2022-10-24T16:51:25;2.60;;;1.60;;
25615;SDS011;13482;48.234;13.006;2022-10-24T16:53:58;3.90;;;1.92;;
25615;SDS011;13482;48.234;13.006;2022-10-24T16:56:27;2.20;;;1.23;;
25615;SDS011;13482;48.234;13.006;2022-10-24T16:58:55;6.47;;;2.15;;
25615;SDS011;13482;48.234;13.006;2022-10-24T17:01:23;3.15;;;1.95;;
25615;SDS011;13482;48.234;13.006;2022-10-24T17:03:53;3.90;;;2.22;;
25615;SDS011;13482;48.234;13.006;2022-10-24T17:06:20;5.55;;;2.85;;
25615;SDS011;13482;48.234;13.006;2022-10-24T17:08:47;3.78;;;2.47;;
25615;SDS011;13482;48.234;13.006;2022-10-24T17:11:15;3.47;;;2.13;;
25615;SDS011;13482;48.234;13.006;2022-10-24T17:14:02;5.75;;;3.35;;